• Join FlightAware (Why Join?)
  • Login
  • US Flag 
07:21AM EST


 

Airport Tracker/Info


-or-


 

Live Flight TrackerFlight Track Log ✈ N702LK ✈ 02-Mar-2014 ✈ MROC / SJO - KAPF

Flight Track Log - Related Links

Times and Time Zones

All times are in EST time to prevent confusion due to time zone crossing. See the N702LK flight status page for this flight to view local times or setup timezone preferences in your user account.

Time Position Orientation Groundspeed Altitude Reporting Facility
EST Latitude Longitude Course Direction KTS MPH feet Rate Location/Type
10:17AM 9.9922 -84.2134 68° East 140 161 2,800  Level FlightAware ADS-B (MRPV / SYQ)
10:17AM 9.9958 -84.2041 68° East 153 176 3,400 2,760 Climbing FlightAware ADS-B (MRPV / SYQ)
10:17AM 9.9999 -84.1934 69° East 173 199 4,200 3,240 Climbing FlightAware ADS-B (MRPV / SYQ)
10:18AM 10.0045 -84.1811 68° East 181 208 5,100 3,360 Climbing FlightAware ADS-B (MRPV / SYQ)
10:18AM 10.0091 -84.1693 69° East 188 216 5,900 3,420 Climbing FlightAware ADS-B (MRPV / SYQ)
10:18AM 10.0103 -84.1651 77° East 189 217 6,200 3,000 Climbing FlightAware ADS-B (MRPV / SYQ)
10:18AM 10.0108 -84.1612 86° East 192 221 6,400 2,400 Climbing FlightAware ADS-B (MRPV / SYQ)
10:18AM 10.0104 -84.1562 101° East 196 226 6,600 3,000 Climbing FlightAware ADS-B (MRPV / SYQ)
10:18AM 10.0090 -84.1523 114° Southeast 201 231 6,900 3,000 Climbing FlightAware ADS-B (MRPV / SYQ)
10:18AM 10.0062 -84.1478 129° Southeast 208 239 7,100 3,000 Climbing FlightAware ADS-B (MRPV / SYQ)
10:18AM 10.0031 -84.1448 140° Southeast 215 247 7,400 3,600 Climbing FlightAware ADS-B (MRPV / SYQ)
10:18AM 9.9982 -84.1419 156° South 224 258 7,700 3,600 Climbing FlightAware ADS-B (MRPV / SYQ)
10:18AM 9.9931 -84.1403 168° South 233 268 8,000 3,000 Climbing FlightAware ADS-B (MRPV / SYQ)
10:18AM 9.9883 -84.1399 181° South 242 278 8,200 3,000 Climbing FlightAware ADS-B (MRPV / SYQ)
10:19AM 9.9824 -84.1406 193° South 249 287 8,500 3,600 Climbing FlightAware ADS-B (MRPV / SYQ)
10:19AM 9.9769 -84.1425 204° Southwest 255 293 8,800 3,600 Climbing FlightAware ADS-B (MRPV / SYQ)
10:19AM 9.9714 -84.1459 217° Southwest 261 300 9,100 3,600 Climbing FlightAware ADS-B (MRPV / SYQ)
10:19AM 9.9672 -84.1497 227° Southwest 262 302 9,400 4,200 Climbing FlightAware ADS-B (MRPV / SYQ)
10:19AM 9.9631 -84.1554 239° Southwest 261 300 9,800 3,720 Climbing FlightAware ADS-B (MRPV / SYQ)
10:19AM 9.9593 -84.1668 263° West 256 295 10,400 3,600 Climbing FlightAware ADS-B (MRPV / SYQ)
10:19AM 9.9600 -84.1775 284° West 250 288 11,000 3,660 Climbing FlightAware ADS-B (MRPV / SYQ)
10:19AM 9.9629 -84.1861 293° West 246 283 11,500 1,500 Climbing FlightAware ADS-B (MRPV / SYQ)
10:20AM 9.9800 -84.2219 310° West 290 334 12,000 720 Climbing FlightAware ADS-B (MRPV / SYQ)
10:20AM 9.9899 -84.2306 329° Northwest 311 358 12,000 600 Level FlightAware ADS-B (MRPV / SYQ)
10:20AM 10.0039 -84.2359 349° North 323 372 12,200 1,200 Climbing FlightAware ADS-B (MRPV / SYQ)
10:20AM 10.0197 -84.2361 North 333 383 12,400 1,500 Climbing FlightAware ADS-B (MRPV / SYQ)
10:21AM 10.0349 -84.2318 18° North 344 396 12,700 1,920 Climbing FlightAware ADS-B (MRPV / SYQ)
10:21AM 10.0808 -84.2152 18° North 369 425 13,700 2,280 Climbing FlightAware ADS-B (MRPV / SYQ)
10:22AM 10.1291 -84.2025 12° North 374 430 15,000 2,760 Climbing FlightAware ADS-B (MRPV / SYQ)
10:22AM 10.1812 -84.1905 12° North 375 432 16,500 2,400 Climbing FlightAware ADS-B (MRPV / SYQ)
10:23AM 10.2341 -84.1781 13° North 394 453 17,500 2,160 Climbing FlightAware ADS-B (MRPV / SYQ)
10:23AM 10.2876 -84.1654 13° North 401 461 18,700 2,400 Climbing FlightAware ADS-B (MRPV / SYQ)
10:24AM 10.3428 -84.1520 13° North 411 473 19,900 2,280 Climbing FlightAware ADS-B (MRPV / SYQ)
10:24AM 10.3990 -84.1391 12° North 420 483 21,000 2,160 Climbing FlightAware ADS-B (MRPV / SYQ)
10:25AM 10.4547 -84.1265 12° North 425 489 22,100 2,400 Climbing FlightAware ADS-B (MRPV / SYQ)
10:25AM 10.5170 -84.1120 13° North 426 490 23,500 2,700 Climbing FlightAware ADS-B (MRPV / SYQ)
10:26AM 10.5763 -84.0982 13° North 420 483 24,900 2,280 Climbing FlightAware ADS-B (MRPV / SYQ)
10:26AM 10.6319 -84.0854 13° North 433 498 25,800 1,500 Climbing FlightAware ADS-B (MRPV / SYQ)
10:27AM 10.6941 -84.0711 13° North 447 514 26,400 1,500 Climbing FlightAware ADS-B (MRPV / SYQ)
10:27AM 10.7395 -84.0604 13° North 451 519 27,200 120 Climbing FlightAware ADS-B (MRPV / SYQ)
10:30AM 11.0321 -84.0009 11° North  Level FlightAware Approximate
10:31AM 11.1500 -83.9768 11° North  Level FlightAware Approximate
10:32AM 11.2678 -83.9528 11° North  Level FlightAware Approximate
10:33AM 11.3856 -83.9287 11° North  Level FlightAware Approximate
10:34AM 11.5035 -83.9047 11° North  Level FlightAware Approximate
10:35AM 11.6213 -83.8806 11° North  Level FlightAware Approximate
10:36AM 11.7391 -83.8565 11° North  Level FlightAware Approximate
10:37AM 11.8569 -83.8323 11° North  Level FlightAware Approximate
10:38AM 11.9747 -83.8086 11° North  Level FlightAware Approximate
10:39AM 12.0928 -83.7855 11° North  Level FlightAware Approximate
10:40AM 12.2108 -83.7625 11° North  Level FlightAware Approximate
10:41AM 12.3288 -83.7394 11° North  Level FlightAware Approximate
10:42AM 12.4469 -83.7163 11° North  Level FlightAware Approximate
10:43AM 12.5649 -83.6932 11° North  Level FlightAware Approximate
10:44AM 12.6829 -83.6700 11° North  Level FlightAware Approximate
10:45AM 12.8007 -83.6455 12° North  Level FlightAware Approximate
10:46AM 12.9184 -83.6208 12° North  Level FlightAware Approximate
10:47AM 13.0362 -83.5961 12° North  Level FlightAware Approximate
10:48AM 13.1539 -83.5713 12° North  Level FlightAware Approximate
10:49AM 13.2716 -83.5465 12° North  Level FlightAware Approximate
10:50AM 13.3893 -83.5217 12° North  Level FlightAware Approximate
10:51AM 13.5070 -83.4969 12° North  Level FlightAware Approximate
10:52AM 13.6248 -83.4720 12° North  Level FlightAware Approximate
10:53AM 13.7425 -83.4473 11° North  Level FlightAware Approximate
10:54AM 13.8603 -83.4227 11° North  Level FlightAware Approximate
10:55AM 13.9780 -83.3980 11° North  Level FlightAware Approximate
10:56AM 14.0958 -83.3733 11° North  Level FlightAware Approximate
10:57AM 14.2135 -83.3486 12° North  Level FlightAware Approximate
10:58AM 14.3313 -83.3239 12° North  Level FlightAware Approximate
10:59AM 14.4490 -83.2991 12° North  Level FlightAware Approximate
11:00AM 14.5668 -83.2743 12° North  Level FlightAware Approximate
11:01AM 14.6845 -83.2495 12° North  Level FlightAware Approximate
11:02AM 14.8023 -83.2246 12° North  Level FlightAware Approximate
11:03AM 14.9200 -83.1997 12° North  Level FlightAware Approximate
11:04AM 15.0378 -83.1748 12° North  Level FlightAware Approximate
11:05AM 15.1555 -83.1499 12° North  Level FlightAware Approximate
11:06AM 15.2732 -83.1249 12° North  Level FlightAware Approximate
11:07AM 15.3910 -83.1000 12° North  Level FlightAware Approximate
11:08AM 15.5087 -83.0750 12° North  Level FlightAware Approximate
11:09AM 15.6264 -83.0499 12° North  Level FlightAware Approximate
11:10AM 15.7441 -83.0248 12° North  Level FlightAware Approximate
11:11AM 15.8618 -82.9997 12° North  Level FlightAware Approximate
11:12AM 15.9796 -82.9746 12° North  Level FlightAware Approximate
11:13AM 16.0973 -82.9499 11° North  Level FlightAware Approximate
11:14AM 16.2152 -82.9254 11° North  Level FlightAware Approximate
11:15AM 16.3330 -82.9008 11° North  Level FlightAware Approximate
11:16AM 16.4509 -82.8762 11° North  Level FlightAware Approximate
11:17AM 16.5687 -82.8516 11° North  Level FlightAware Approximate
11:18AM 16.6865 -82.8270 11° North  Level FlightAware Approximate
11:19AM 16.8043 -82.8023 11° North  Level FlightAware Approximate
11:20AM 16.9222 -82.7776 11° North  Level FlightAware Approximate
11:21AM 17.0400 -82.7529 11° North  Level FlightAware Approximate
11:22AM 17.1578 -82.7281 11° North  Level FlightAware Approximate
11:23AM 17.2756 -82.7033 11° North  Level FlightAware Approximate
11:24AM 17.3934 -82.6785 11° North  Level FlightAware Approximate
11:25AM 17.5112 -82.6536 11° North  Level FlightAware Approximate
11:26AM 17.6290 -82.6287 11° North  Level FlightAware Approximate
11:27AM 17.7468 -82.6038 11° North  Level FlightAware Approximate
11:28AM 17.8646 -82.5789 11° North  Level FlightAware Approximate
11:29AM 17.9824 -82.5539 11° North  Level FlightAware Approximate
11:30AM 18.1002 -82.5288 11° North  Level FlightAware Approximate
11:31AM 18.2180 -82.5038 11° North  Level FlightAware Approximate
11:32AM 18.3358 -82.4787 11° North  Level FlightAware Approximate
11:33AM 18.4536 -82.4536 11° North  Level FlightAware Approximate
11:34AM 18.5713 -82.4284 11° North  Level FlightAware Approximate
11:35AM 18.6891 -82.4032 11° North  Level FlightAware Approximate
11:36AM 18.8069 -82.3780 11° North  Level FlightAware Approximate
11:37AM 18.9247 -82.3527 11° North  Level FlightAware Approximate
11:38AM 19.0424 -82.3274 11° North  Level FlightAware Approximate
11:39AM 19.1602 -82.3021 11° North  Level FlightAware Approximate
11:40AM 19.2779 -82.2767 11° North  Level FlightAware Approximate
11:41AM 19.3957 -82.2513 12° North  Level FlightAware Approximate
11:42AM 19.5134 -82.2259 12° North  Level FlightAware Approximate
11:43AM 19.6312 -82.2004 12° North  Level FlightAware Approximate
11:44AM 19.7489 -82.1748 12° North  Level FlightAware Approximate
11:45AM 19.8667 -82.1493 12° North  Level FlightAware Approximate
11:46AM 19.9844 -82.1237 12° North  Level FlightAware Approximate
11:47AM 20.1021 -82.0979 12° North  Level FlightAware Approximate
11:48AM 20.2198 -82.0720 12° North  Level FlightAware Approximate
11:49AM 20.3375 -82.0460 12° North  Level FlightAware Approximate
11:50AM 20.4551 -82.0201 12° North  Level FlightAware Approximate
11:51AM 20.5728 -81.9940 12° North  Level FlightAware Approximate
11:52AM 20.6905 -81.9680 12° North  Level FlightAware Approximate
11:53AM 20.8081 -81.9418 12° North  Level FlightAware Approximate
11:54AM 20.9258 -81.9157 12° North  Level FlightAware Approximate
11:55AM 21.0434 -81.8895 12° North  Level FlightAware Approximate
11:56AM 21.1611 -81.8633 12° North  Level FlightAware Approximate
11:57AM 21.2787 -81.8370 12° North  Level FlightAware Approximate
11:58AM 21.3964 -81.8107 12° North  Level FlightAware Approximate
11:59AM 21.5140 -81.7843 12° North  Level FlightAware Approximate
12:00PM 21.6317 -81.7579 12° North  Level FlightAware Approximate
12:01PM 21.7493 -81.7315 12° North  Level FlightAware Approximate
12:02PM 21.8666 -81.7048 12° North  Level FlightAware Approximate
12:03PM 21.9839 -81.6780 12° North  Level FlightAware Approximate
12:04PM 22.1012 -81.6513 12° North  Level FlightAware Approximate
12:05PM 22.2184 -81.6244 12° North  Level FlightAware Approximate
12:06PM 22.3357 -81.5975 12° North  Level FlightAware Approximate
12:07PM 22.4530 -81.5706 12° North  Level FlightAware Approximate
12:08PM 22.5702 -81.5436 12° North  Level FlightAware Approximate
12:09PM 22.6875 -81.5166 12° North  Level FlightAware Approximate
12:09PM 23.8128 -81.2619 12° North 477 549 43,000  Level Miami Center
12:10PM 22.8047 -81.4895 12° North  Level FlightAware Approximate
12:10PM 23.9456 -81.2281 13° North 484 557 43,000  Level Miami Center
12:11PM 22.9220 -81.4624 12° North  Level FlightAware Approximate
12:11PM 24.0772 -81.2211 North 484 557 43,000  Level Miami Center
12:12PM 23.0392 -81.4353 12° North  Level FlightAware Approximate
12:12PM 24.1881 -81.2819 333° Northwest 441 507 43,000  Level Miami Center
12:13PM 24.2967 -81.3519 330° Northwest 447 514 41,600 -2,160 Descending Miami Center
12:14PM 24.4053 -81.4242 329° Northwest 442 509 38,700 -2,820 Descending Miami Center
12:15PM 24.5139 -81.4919 330° Northwest 447 514 36,000 -1,380 Descending Miami Center
12:16PM 24.6311 -81.5514 335° Northwest 453 521 36,000  Level Miami Center
12:17PM 24.7764 -81.5750 352° North 459 528 36,000 -840 Level Miami Center
12:18PM 24.8883 -81.6044 347° North 466 536 34,400 -2,580 Descending Miami Center
12:19PM 25.0128 -81.6300 349° North 466 536 30,900 -3,720 Descending Miami Center
12:20PM 25.1394 -81.6556 350° North 466 536 27,000 -3,480 Descending Miami Center
12:21PM 25.2575 -81.6808 349° North 455 524 24,000 -2,640 Descending Miami Center
12:22PM 25.3697 -81.7014 351° North 429 494 21,800 -9,000 Descending Miami Center
12:23PM 25.4900 -81.7269 349° North 411 473 6,000 -3,840 Descending Miami Center
12:24PM 25.5936 -81.7494 349° North 389 448 14,200 2,400 Climbing Miami Center
12:25PM 25.6806 -81.7669 350° North 366 421 10,800 -2,640 Descending Miami Center
12:26PM 25.7719 -81.7867 349° North 318 366 9,000 -2,580 Descending Miami Center
12:27PM 25.8486 -81.8036 349° North 283 326 5,700 -3,000 Descending Miami Center
12:28PM 25.9208 -81.8275 343° North 268 308 3,100 -1,440 Descending Miami Center
12:29PM 25.9806 -81.8508 341° North 241 277 2,900 -360 Descending Miami Center
12:30PM 26.0386 -81.8600 352° North 217 250 2,400 -600 Descending Miami Center
12:31PM 26.0786 -81.8547 North 165 190 1,800 -660 Descending Miami Center
12:32PM 26.1067 -81.8258 43° Northeast 133 153 1,100 -660 Descending Miami Center
12:33PM 26.1328 -81.7992 43° Northeast 127 146 500 -480 Descending Miami Center
12:34PM 26.1564 -81.7725 45° Northeast 127 146 200 -300 Descending Miami Center
12:36PM 26.1500 -81.7667 326° Northwest  Level FlightAware Approximate